sensor_id;sensor_type;location;lat;lon;timestamp;temperature;humidity
26745;DHT22;14342;50.960;13.880;2023-02-26T00:01:00;-0.40;99.90
26745;DHT22;14342;50.960;13.880;2023-02-26T00:02:01;-0.30;99.90
26745;DHT22;14342;50.960;13.880;2023-02-26T00:03:03;-0.40;99.90
26745;DHT22;14342;50.960;13.880;2023-02-26T00:04:04;-0.40;99.90
26745;DHT22;14342;50.960;13.880;2023-02-26T00:05:07;-0.30;99.90
26745;DHT22;14342;50.960;13.880;2023-02-26T00:06:07;-0.40;99.90
26745;DHT22;14342;50.960;13.880;2023-02-26T00:07:09;-0.40;99.90
26745;DHT22;14342;50.960;13.880;2023-02-26T00:08:11;-0.40;99.90
26745;DHT22;14342;50.960;13.880;2023-02-26T00:09:11;-0.50;99.90
26745;DHT22;14342;50.960;13.880;2023-02-26T00:10:14;-0.40;99.90
26745;DHT22;14342;50.960;13.880;2023-02-26T00:11:16;-0.40;99.90
26745;DHT22;14342;50.960;13.880;2023-02-26T00:12:17;-0.30;99.90
26745;DHT22;14342;50.960;13.880;2023-02-26T00:13:19;-0.40;99.90
26745;DHT22;14342;50.960;13.880;2023-02-26T00:14:20;-0.40;99.90
26745;DHT22;14342;50.960;13.880;2023-02-26T00:15:22;-0.40;99.90
26745;DHT22;14342;50.960;13.880;2023-02-26T00:16:25;-0.30;99.90
26745;DHT22;14342;50.960;13.880;2023-02-26T00:17:30;-0.40;99.90
26745;DHT22;14342;50.960;13.880;2023-02-26T00:18:31;-0.40;99.90
26745;DHT22;14342;50.960;13.880;2023-02-26T00:19:33;-0.40;99.90
26745;DHT22;14342;50.960;13.880;2023-02-26T00:20:35;-0.40;99.90
26745;DHT22;14342;50.960;13.880;2023-02-26T00:21:37;-0.40;99.90
26745;DHT22;14342;50.960;13.880;2023-02-26T00:22:38;-0.50;99.90
26745;DHT22;14342;50.960;13.880;2023-02-26T00:23:40;-0.50;99.90
26745;DHT22;14342;50.960;13.880;2023-02-26T00:24:41;-0.60;99.90
26745;DHT22;14342;50.960;13.880;2023-02-26T00:25:44;-0.50;99.90
26745;DHT22;14342;50.960;13.880;2023-02-26T00:26:44;-0.50;99.90
26745;DHT22;14342;50.960;13.880;2023-02-26T00:27:46;-0.50;99.90
26745;DHT22;14342;50.960;13.880;2023-02-26T00:28:47;-0.50;99.90
26745;DHT22;14342;50.960;13.880;2023-02-26T00:29:49;-0.60;99.90
26745;DHT22;14342;50.960;13.880;2023-02-26T00:30:50;-0.50;99.90
26745;DHT22;14342;50.960;13.880;2023-02-26T00:31:52;-0.60;99.90
26745;DHT22;14342;50.960;13.880;2023-02-26T00:32:53;-0.60;99.90
26745;DHT22;14342;50.960;13.880;2023-02-26T00:33:55;-0.60;99.90
26745;DHT22;14342;50.960;13.880;2023-02-26T00:34:56;-0.60;99.90
26745;DHT22;14342;50.960;13.880;2023-02-26T00:35:59;-0.60;99.90
26745;DHT22;14342;50.960;13.880;2023-02-26T00:37:06;-0.60;99.90
26745;DHT22;14342;50.960;13.880;2023-02-26T00:38:10;-0.50;99.90
26745;DHT22;14342;50.960;13.880;2023-02-26T00:39:14;-0.80;99.90
26745;DHT22;14342;50.960;13.880;2023-02-26T00:40:23;-0.50;99.90
26745;DHT22;14342;50.960;13.880;2023-02-26T00:41:30;-0.60;99.90
26745;DHT22;14342;50.960;13.880;2023-02-26T00:42:31;-0.50;99.90
26745;DHT22;14342;50.960;13.880;2023-02-26T00:43:32;-0.60;99.90
26745;DHT22;14342;50.960;13.880;2023-02-26T00:44:35;-0.60;99.90
26745;DHT22;14342;50.960;13.880;2023-02-26T00:45:36;-0.60;99.90
26745;DHT22;14342;50.960;13.880;2023-02-26T00:46:40;-0.60;99.90
26745;DHT22;14342;50.960;13.880;2023-02-26T00:47:45;-0.60;99.90
26745;DHT22;14342;50.960;13.880;2023-02-26T00:48:51;-0.60;99.90
26745;DHT22;14342;50.960;13.880;2023-02-26T00:49:59;-0.60;99.90
26745;DHT22;14342;50.960;13.880;2023-02-26T00:51:06;-0.50;99.90
26745;DHT22;14342;50.960;13.880;2023-02-26T00:52:10;-0.60;99.90
26745;DHT22;14342;50.960;13.880;2023-02-26T00:53:15;-0.50;99.90
26745;DHT22;14342;50.960;13.880;2023-02-26T00:54:17;-0.60;99.90
26745;DHT22;14342;50.960;13.880;2023-02-26T00:55:19;-0.60;99.90
26745;DHT22;14342;50.960;13.880;2023-02-26T00:56:20;-0.60;99.90
26745;DHT22;14342;50.960;13.880;2023-02-26T00:57:23;-0.70;99.90
26745;DHT22;14342;50.960;13.880;2023-02-26T00:58:24;-0.70;99.90
26745;DHT22;14342;50.960;13.880;2023-02-26T00:59:26;-0.70;99.90
26745;DHT22;14342;50.960;13.880;2023-02-26T01:00:26;-0.70;99.90
26745;DHT22;14342;50.960;13.880;2023-02-26T01:01:28;-0.70;99.90
26745;DHT22;14342;50.960;13.880;2023-02-26T01:02:29;-0.70;99.90
26745;DHT22;14342;50.960;13.880;2023-02-26T01:03:31;-0.70;99.90
26745;DHT22;14342;50.960;13.880;2023-02-26T01:04:32;-0.70;99.90
26745;DHT22;14342;50.960;13.880;2023-02-26T01:05:34;-0.70;99.90
26745;DHT22;14342;50.960;13.880;2023-02-26T01:06:36;-0.70;99.90
26745;DHT22;14342;50.960;13.880;2023-02-26T01:07:39;-0.70;99.90
26745;DHT22;14342;50.960;13.880;2023-02-26T01:08:42;-0.70;99.90
26745;DHT22;14342;50.960;13.880;2023-02-26T01:09:55;-0.70;99.90
26745;DHT22;14342;50.960;13.880;2023-02-26T01:11:14;-0.70;99.90
26745;DHT22;14342;50.960;13.880;2023-02-26T01:12:14;-0.70;99.90
26745;DHT22;14342;50.960;13.880;2023-02-26T01:13:18;-0.70;99.90
26745;DHT22;14342;50.960;13.880;2023-02-26T01:14:19;-0.70;99.90
26745;DHT22;14342;50.960;13.880;2023-02-26T01:15:21;-0.70;99.90
26745;DHT22;14342;50.960;13.880;2023-02-26T01:16:23;-0.70;99.90
26745;DHT22;14342;50.960;13.880;2023-02-26T01:17:27;-0.70;99.90
26745;DHT22;14342;50.960;13.880;2023-02-26T01:18:32;-0.70;99.90
26745;DHT22;14342;50.960;13.880;2023-02-26T01:19:40;-0.70;99.90
26745;DHT22;14342;50.960;13.880;2023-02-26T01:20:43;-0.70;99.90
26745;DHT22;14342;50.960;13.880;2023-02-26T01:21:48;-0.70;99.90
26745;DHT22;14342;50.960;13.880;2023-02-26T01:22:51;-0.70;99.90
26745;DHT22;14342;50.960;13.880;2023-02-26T01:23:54;-0.60;99.90
26745;DHT22;14342;50.960;13.880;2023-02-26T01:24:55;-0.70;99.90
26745;DHT22;14342;50.960;13.880;2023-02-26T01:25:59;-0.70;99.90
26745;DHT22;14342;50.960;13.880;2023-02-26T01:27:01;-0.70;99.90
26745;DHT22;14342;50.960;13.880;2023-02-26T01:28:03;-0.70;99.90
26745;DHT22;14342;50.960;13.880;2023-02-26T01:29:05;-0.70;99.90
26745;DHT22;14342;50.960;13.880;2023-02-26T01:30:08;-0.70;99.90
26745;DHT22;14342;50.960;13.880;2023-02-26T01:31:10;-0.70;99.90
26745;DHT22;14342;50.960;13.880;2023-02-26T01:32:16;-0.60;99.90
26745;DHT22;14342;50.960;13.880;2023-02-26T01:33:20;-0.70;99.90
26745;DHT22;14342;50.960;13.880;2023-02-26T01:34:25;-0.70;99.90
26745;DHT22;14342;50.960;13.880;2023-02-26T01:35:31;-0.70;99.90
26745;DHT22;14342;50.960;13.880;2023-02-26T01:36:38;-0.70;99.90
26745;DHT22;14342;50.960;13.880;2023-02-26T01:37:40;-0.70;99.90
26745;DHT22;14342;50.960;13.880;2023-02-26T01:38:47;-0.70;99.90
26745;DHT22;14342;50.960;13.880;2023-02-26T01:39:56;-0.70;99.90
26745;DHT22;14342;50.960;13.880;2023-02-26T01:41:16;-0.70;99.90
26745;DHT22;14342;50.960;13.880;2023-02-26T01:42:21;-0.80;99.90
26745;DHT22;14342;50.960;13.880;2023-02-26T01:43:25;-0.80;99.90
26745;DHT22;14342;50.960;13.880;2023-02-26T01:44:29;-0.70;99.90
26745;DHT22;14342;50.960;13.880;2023-02-26T01:45:32;-0.70;99.90
26745;DHT22;14342;50.960;13.880;2023-02-26T01:46:35;-0.80;99.90
26745;DHT22;14342;50.960;13.880;2023-02-26T01:47:38;-0.70;99.90
26745;DHT22;14342;50.960;13.880;2023-02-26T01:48:44;-0.80;99.90
26745;DHT22;14342;50.960;13.880;2023-02-26T01:49:47;-0.70;99.90
26745;DHT22;14342;50.960;13.880;2023-02-26T01:50:49;-0.70;99.90
26745;DHT22;14342;50.960;13.880;2023-02-26T01:51:50;-0.80;99.90
26745;DHT22;14342;50.960;13.880;2023-02-26T01:53:06;-0.80;99.90
26745;DHT22;14342;50.960;13.880;2023-02-26T01:54:18;-0.70;99.90
26745;DHT22;14342;50.960;13.880;2023-02-26T01:55:21;-0.80;99.90
26745;DHT22;14342;50.960;13.880;2023-02-26T01:56:22;-0.80;99.90
26745;DHT22;14342;50.960;13.880;2023-02-26T01:57:24;-0.80;99.90
26745;DHT22;14342;50.960;13.880;2023-02-26T01:58:25;-0.80;99.90
26745;DHT22;14342;50.960;13.880;2023-02-26T01:59:29;-0.80;99.90
26745;DHT22;14342;50.960;13.880;2023-02-26T02:00:30;-0.80;99.90
26745;DHT22;14342;50.960;13.880;2023-02-26T02:01:32;-0.80;99.90
26745;DHT22;14342;50.960;13.880;2023-02-26T02:02:33;-0.80;99.90
26745;DHT22;14342;50.960;13.880;2023-02-26T02:03:36;-0.80;99.90
26745;DHT22;14342;50.960;13.880;2023-02-26T02:04:37;-0.70;99.90
26745;DHT22;14342;50.960;13.880;2023-02-26T02:05:42;-0.80;99.90
26745;DHT22;14342;50.960;13.880;2023-02-26T02:06:43;-0.80;99.90
26745;DHT22;14342;50.960;13.880;2023-02-26T02:07:46;-0.70;99.90
26745;DHT22;14342;50.960;13.880;2023-02-26T02:08:46;-0.80;99.90
26745;DHT22;14342;50.960;13.880;2023-02-26T02:09:48;-0.70;99.90
26745;DHT22;14342;50.960;13.880;2023-02-26T02:10:49;-0.80;99.90
26745;DHT22;14342;50.960;13.880;2023-02-26T02:13:09;-0.70;99.90
26745;DHT22;14342;50.960;13.880;2023-02-26T02:14:17;-0.70;99.90
26745;DHT22;14342;50.960;13.880;2023-02-26T02:15:23;-0.70;99.90
26745;DHT22;14342;50.960;13.880;2023-02-26T02:16:27;-0.70;99.90
26745;DHT22;14342;50.960;13.880;2023-02-26T02:17:33;-0.70;99.90
26745;DHT22;14342;50.960;13.880;2023-02-26T02:18:40;-0.70;99.90
26745;DHT22;14342;50.960;13.880;2023-02-26T02:19:48;-0.60;99.90
26745;DHT22;14342;50.960;13.880;2023-02-26T02:21:09;-0.80;99.90
26745;DHT22;14342;50.960;13.880;2023-02-26T02:22:19;-0.70;99.90
26745;DHT22;14342;50.960;13.880;2023-02-26T02:23:29;-1.10;99.90
26745;DHT22;14342;50.960;13.880;2023-02-26T02:24:34;-1.00;99.90
26745;DHT22;14342;50.960;13.880;2023-02-26T02:25:39;-0.80;99.90
26745;DHT22;14342;50.960;13.880;2023-02-26T02:26:48;-0.80;99.90
26745;DHT22;14342;50.960;13.880;2023-02-26T02:27:54;-0.70;99.90
26745;DHT22;14342;50.960;13.880;2023-02-26T02:29:08;-0.80;99.90
26745;DHT22;14342;50.960;13.880;2023-02-26T02:30:25;-0.70;99.90
26745;DHT22;14342;50.960;13.880;2023-02-26T02:31:30;-0.80;99.90
26745;DHT22;14342;50.960;13.880;2023-02-26T02:32:33;-0.70;99.90
26745;DHT22;14342;50.960;13.880;2023-02-26T02:33:37;-0.70;99.90
26745;DHT22;14342;50.960;13.880;2023-02-26T02:34:43;-0.70;99.90
26745;DHT22;14342;50.960;13.880;2023-02-26T02:35:47;-0.80;99.90
26745;DHT22;14342;50.960;13.880;2023-02-26T02:36:54;-0.80;99.90
26745;DHT22;14342;50.960;13.880;2023-02-26T02:37:57;-0.70;99.90
26745;DHT22;14342;50.960;13.880;2023-02-26T02:39:01;-0.70;99.90
26745;DHT22;14342;50.960;13.880;2023-02-26T02:40:05;-0.70;99.90
26745;DHT22;14342;50.960;13.880;2023-02-26T02:41:08;-0.70;99.90
26745;DHT22;14342;50.960;13.880;2023-02-26T02:42:16;-0.70;99.90
26745;DHT22;14342;50.960;13.880;2023-02-26T02:43:19;-0.60;99.90
26745;DHT22;14342;50.960;13.880;2023-02-26T02:44:23;-0.60;99.90
26745;DHT22;14342;50.960;13.880;2023-02-26T02:45:26;-0.60;99.90
26745;DHT22;14342;50.960;13.880;2023-02-26T02:46:31;-0.60;99.90
26745;DHT22;14342;50.960;13.880;2023-02-26T02:47:34;-0.50;99.90
26745;DHT22;14342;50.960;13.880;2023-02-26T02:48:38;-0.50;99.90
26745;DHT22;14342;50.960;13.880;2023-02-26T02:49:41;-0.60;99.90
26745;DHT22;14342;50.960;13.880;2023-02-26T02:50:45;-0.60;99.90
26745;DHT22;14342;50.960;13.880;2023-02-26T02:51:47;-0.60;99.90
26745;DHT22;14342;50.960;13.880;2023-02-26T02:52:53;-0.70;99.90
26745;DHT22;14342;50.960;13.880;2023-02-26T02:53:56;-0.70;99.90
26745;DHT22;14342;50.960;13.880;2023-02-26T02:55:02;-0.60;99.90
26745;DHT22;14342;50.960;13.880;2023-02-26T02:56:03;-0.60;99.90
26745;DHT22;14342;50.960;13.880;2023-02-26T02:57:08;-0.70;99.90
26745;DHT22;14342;50.960;13.880;2023-02-26T02:58:13;-0.60;99.90
26745;DHT22;14342;50.960;13.880;2023-02-26T02:59:16;-0.60;99.90
26745;DHT22;14342;50.960;13.880;2023-02-26T03:00:18;-0.60;99.90
26745;DHT22;14342;50.960;13.880;2023-02-26T03:01:22;-0.60;99.90
26745;DHT22;14342;50.960;13.880;2023-02-26T03:02:27;-0.60;99.90
26745;DHT22;14342;50.960;13.880;2023-02-26T03:03:33;-0.60;99.90
26745;DHT22;14342;50.960;13.880;2023-02-26T03:04:34;-0.60;99.90
26745;DHT22;14342;50.960;13.880;2023-02-26T03:05:36;-0.40;99.90
26745;DHT22;14342;50.960;13.880;2023-02-26T03:06:37;-0.20;99.90
26745;DHT22;14342;50.960;13.880;2023-02-26T03:07:40;-0.50;99.90
26745;DHT22;14342;50.960;13.880;2023-02-26T03:08:43;-0.50;99.90
26745;DHT22;14342;50.960;13.880;2023-02-26T03:09:47;-0.60;99.90
26745;DHT22;14342;50.960;13.880;2023-02-26T03:10:48;-0.50;99.90
26745;DHT22;14342;50.960;13.880;2023-02-26T03:11:50;-0.60;99.90
26745;DHT22;14342;50.960;13.880;2023-02-26T03:12:50;-0.60;99.90
26745;DHT22;14342;50.960;13.880;2023-02-26T03:13:52;-0.60;99.90
26745;DHT22;14342;50.960;13.880;2023-02-26T03:14:54;-0.60;99.90
26745;DHT22;14342;50.960;13.880;2023-02-26T03:15:59;-0.60;99.90
26745;DHT22;14342;50.960;13.880;2023-02-26T03:17:10;-0.60;99.90
26745;DHT22;14342;50.960;13.880;2023-02-26T03:18:17;-0.50;99.90
26745;DHT22;14342;50.960;13.880;2023-02-26T03:19:24;-0.50;99.90
26745;DHT22;14342;50.960;13.880;2023-02-26T03:20:28;-0.50;99.90
26745;DHT22;14342;50.960;13.880;2023-02-26T03:21:33;-0.50;99.90
26745;DHT22;14342;50.960;13.880;2023-02-26T03:22:38;-0.40;99.90
26745;DHT22;14342;50.960;13.880;2023-02-26T03:23:42;-0.40;99.90
26745;DHT22;14342;50.960;13.880;2023-02-26T03:24:47;-0.30;99.90
26745;DHT22;14342;50.960;13.880;2023-02-26T03:25:50;-0.20;99.90
26745;DHT22;14342;50.960;13.880;2023-02-26T03:26:53;-0.20;99.90
26745;DHT22;14342;50.960;13.880;2023-02-26T03:27:57;-0.20;99.90
26745;DHT22;14342;50.960;13.880;2023-02-26T03:29:02;-0.20;99.90
26745;DHT22;14342;50.960;13.880;2023-02-26T03:30:05;-0.20;99.90
26745;DHT22;14342;50.960;13.880;2023-02-26T03:31:08;-0.20;99.90
26745;DHT22;14342;50.960;13.880;2023-02-26T03:32:13;-0.20;99.90
26745;DHT22;14342;50.960;13.880;2023-02-26T03:33:19;-0.20;99.90
26745;DHT22;14342;50.960;13.880;2023-02-26T03:34:23;-0.20;99.90
26745;DHT22;14342;50.960;13.880;2023-02-26T03:35:26;-0.20;99.90
26745;DHT22;14342;50.960;13.880;2023-02-26T03:36:30;-0.10;99.90
26745;DHT22;14342;50.960;13.880;2023-02-26T03:37:34;-0.10;99.90
26745;DHT22;14342;50.960;13.880;2023-02-26T03:38:37;-0.10;99.90
26745;DHT22;14342;50.960;13.880;2023-02-26T03:39:42;-0.10;99.90
26745;DHT22;14342;50.960;13.880;2023-02-26T03:40:45;-0.10;99.90
26745;DHT22;14342;50.960;13.880;2023-02-26T03:41:48;-0.10;99.90
26745;DHT22;14342;50.960;13.880;2023-02-26T03:42:52;-0.10;99.90
26745;DHT22;14342;50.960;13.880;2023-02-26T03:43:56;-0.10;99.90
26745;DHT22;14342;50.960;13.880;2023-02-26T03:44:58;-0.10;99.90
26745;DHT22;14342;50.960;13.880;2023-02-26T03:46:02;-0.10;99.90
26745;DHT22;14342;50.960;13.880;2023-02-26T03:47:05;-0.10;99.90
26745;DHT22;14342;50.960;13.880;2023-02-26T03:48:07;-0.10;99.90
26745;DHT22;14342;50.960;13.880;2023-02-26T03:49:12;-0.10;99.90
26745;DHT22;14342;50.960;13.880;2023-02-26T03:50:15;-0.20;99.90
26745;DHT22;14342;50.960;13.880;2023-02-26T03:51:17;-0.10;99.90
26745;DHT22;14342;50.960;13.880;2023-02-26T03:52:19;-0.10;99.90
26745;DHT22;14342;50.960;13.880;2023-02-26T03:53:23;0.00;99.90
26745;DHT22;14342;50.960;13.880;2023-02-26T03:54:26;-0.10;99.90
26745;DHT22;14342;50.960;13.880;2023-02-26T03:55:28;-0.10;99.90
26745;DHT22;14342;50.960;13.880;2023-02-26T03:56:33;-0.10;99.90
26745;DHT22;14342;50.960;13.880;2023-02-26T03:57:35;-0.10;99.90
26745;DHT22;14342;50.960;13.880;2023-02-26T03:58:37;-0.10;99.90
26745;DHT22;14342;50.960;13.880;2023-02-26T03:59:38;-0.10;99.90
26745;DHT22;14342;50.960;13.880;2023-02-26T04:00:40;-0.10;99.90
26745;DHT22;14342;50.960;13.880;2023-02-26T04:01:42;0.00;99.90
26745;DHT22;14342;50.960;13.880;2023-02-26T04:02:46;-0.20;99.90
26745;DHT22;14342;50.960;13.880;2023-02-26T04:03:49;-0.20;99.90
26745;DHT22;14342;50.960;13.880;2023-02-26T04:04:55;-0.30;99.90
26745;DHT22;14342;50.960;13.880;2023-02-26T04:05:56;-0.50;99.90
26745;DHT22;14342;50.960;13.880;2023-02-26T04:06:58;-0.60;99.90
26745;DHT22;14342;50.960;13.880;2023-02-26T04:07:59;-0.60;99.90
26745;DHT22;14342;50.960;13.880;2023-02-26T04:09:02;-0.40;99.90
26745;DHT22;14342;50.960;13.880;2023-02-26T04:10:03;-0.40;99.90
26745;DHT22;14342;50.960;13.880;2023-02-26T04:11:07;-0.50;99.90
26745;DHT22;14342;50.960;13.880;2023-02-26T04:12:09;-0.40;99.90
26745;DHT22;14342;50.960;13.880;2023-02-26T04:13:10;-0.40;99.90
26745;DHT22;14342;50.960;13.880;2023-02-26T04:14:11;-0.50;99.90
26745;DHT22;14342;50.960;13.880;2023-02-26T04:15:13;-0.50;99.90
26745;DHT22;14342;50.960;13.880;2023-02-26T04:16:14;-0.50;99.90
26745;DHT22;14342;50.960;13.880;2023-02-26T04:17:15;-0.60;99.90
26745;DHT22;14342;50.960;13.880;2023-02-26T04:18:16;-0.50;99.90
26745;DHT22;14342;50.960;13.880;2023-02-26T04:19:18;-0.50;99.90
26745;DHT22;14342;50.960;13.880;2023-02-26T04:20:20;-0.50;99.90
26745;DHT22;14342;50.960;13.880;2023-02-26T04:21:21;-0.50;99.90
26745;DHT22;14342;50.960;13.880;2023-02-26T04:22:22;-0.40;99.90
26745;DHT22;14342;50.960;13.880;2023-02-26T04:23:24;-0.50;99.90
26745;DHT22;14342;50.960;13.880;2023-02-26T04:24:25;-0.50;99.90
26745;DHT22;14342;50.960;13.880;2023-02-26T04:25:30;-0.50;99.90
26745;DHT22;14342;50.960;13.880;2023-02-26T04:26:31;-0.40;99.90
26745;DHT22;14342;50.960;13.880;2023-02-26T04:27:32;-0.40;99.90
26745;DHT22;14342;50.960;13.880;2023-02-26T04:28:33;-0.50;99.90
26745;DHT22;14342;50.960;13.880;2023-02-26T04:29:37;-0.50;99.90
26745;DHT22;14342;50.960;13.880;2023-02-26T04:30:37;-0.50;99.90
26745;DHT22;14342;50.960;13.880;2023-02-26T04:31:39;-0.50;99.90
26745;DHT22;14342;50.960;13.880;2023-02-26T04:32:40;-0.50;99.90
26745;DHT22;14342;50.960;13.880;2023-02-26T04:33:41;-0.60;99.90
26745;DHT22;14342;50.960;13.880;2023-02-26T04:34:42;-0.70;99.90
26745;DHT22;14342;50.960;13.880;2023-02-26T04:35:45;-0.70;99.90
26745;DHT22;14342;50.960;13.880;2023-02-26T04:36:49;-0.70;99.90
26745;DHT22;14342;50.960;13.880;2023-02-26T04:37:50;-0.80;99.90
26745;DHT22;14342;50.960;13.880;2023-02-26T04:38:51;-0.50;99.90
26745;DHT22;14342;50.960;13.880;2023-02-26T04:39:53;-0.60;99.90
26745;DHT22;14342;50.960;13.880;2023-02-26T04:40:53;-0.60;99.90
26745;DHT22;14342;50.960;13.880;2023-02-26T04:41:55;-0.70;99.90
26745;DHT22;14342;50.960;13.880;2023-02-26T04:42:56;-0.60;99.90
26745;DHT22;14342;50.960;13.880;2023-02-26T04:43:57;-0.50;99.90
26745;DHT22;14342;50.960;13.880;2023-02-26T04:44:58;-0.50;99.90
26745;DHT22;14342;50.960;13.880;2023-02-26T04:45:59;-0.60;99.90
26745;DHT22;14342;50.960;13.880;2023-02-26T04:47:01;-0.60;99.90
26745;DHT22;14342;50.960;13.880;2023-02-26T04:48:02;-0.60;99.90
26745;DHT22;14342;50.960;13.880;2023-02-26T04:49:03;-0.60;99.90
26745;DHT22;14342;50.960;13.880;2023-02-26T04:50:04;-0.50;99.90
26745;DHT22;14342;50.960;13.880;2023-02-26T04:51:07;-0.50;99.90
26745;DHT22;14342;50.960;13.880;2023-02-26T04:52:08;-0.50;99.90
26745;DHT22;14342;50.960;13.880;2023-02-26T04:53:10;-0.50;99.90
26745;DHT22;14342;50.960;13.880;2023-02-26T04:54:10;-0.60;99.90
26745;DHT22;14342;50.960;13.880;2023-02-26T04:55:12;-0.40;99.90
26745;DHT22;14342;50.960;13.880;2023-02-26T04:56:13;-0.40;99.90
26745;DHT22;14342;50.960;13.880;2023-02-26T04:57:14;-0.50;99.90
26745;DHT22;14342;50.960;13.880;2023-02-26T04:58:15;-0.40;99.90
26745;DHT22;14342;50.960;13.880;2023-02-26T04:59:16;-0.40;99.90
26745;DHT22;14342;50.960;13.880;2023-02-26T05:00:17;-0.50;99.90
26745;DHT22;14342;50.960;13.880;2023-02-26T05:01:19;-0.40;99.90
26745;DHT22;14342;50.960;13.880;2023-02-26T05:02:20;-0.40;99.90
26745;DHT22;14342;50.960;13.880;2023-02-26T05:03:21;-0.40;99.90
26745;DHT22;14342;50.960;13.880;2023-02-26T05:04:22;-0.40;99.90
26745;DHT22;14342;50.960;13.880;2023-02-26T05:05:24;-0.40;99.90
26745;DHT22;14342;50.960;13.880;2023-02-26T05:06:26;-0.50;99.90
26745;DHT22;14342;50.960;13.880;2023-02-26T05:07:27;-0.50;99.90
26745;DHT22;14342;50.960;13.880;2023-02-26T05:08:28;-0.50;99.90
26745;DHT22;14342;50.960;13.880;2023-02-26T05:09:30;-0.30;99.90
26745;DHT22;14342;50.960;13.880;2023-02-26T05:10:30;-0.40;99.90
26745;DHT22;14342;50.960;13.880;2023-02-26T05:11:32;-0.50;99.90
26745;DHT22;14342;50.960;13.880;2023-02-26T05:12:33;-0.50;99.90
26745;DHT22;14342;50.960;13.880;2023-02-26T05:13:34;-0.50;99.90
26745;DHT22;14342;50.960;13.880;2023-02-26T05:14:35;-0.50;99.90
26745;DHT22;14342;50.960;13.880;2023-02-26T05:15:36;-0.60;99.90
26745;DHT22;14342;50.960;13.880;2023-02-26T05:16:37;-0.60;99.90
26745;DHT22;14342;50.960;13.880;2023-02-26T05:17:39;-0.60;99.90
26745;DHT22;14342;50.960;13.880;2023-02-26T05:18:39;-0.50;99.90
26745;DHT22;14342;50.960;13.880;2023-02-26T05:19:41;-0.40;99.90
26745;DHT22;14342;50.960;13.880;2023-02-26T05:20:41;-0.40;99.90
26745;DHT22;14342;50.960;13.880;2023-02-26T05:21:44;-0.50;99.90
26745;DHT22;14342;50.960;13.880;2023-02-26T05:22:45;-0.50;99.90
26745;DHT22;14342;50.960;13.880;2023-02-26T05:23:47;-0.40;99.90
26745;DHT22;14342;50.960;13.880;2023-02-26T05:24:47;-0.50;99.90
26745;DHT22;14342;50.960;13.880;2023-02-26T05:25:49;-0.50;99.90
26745;DHT22;14342;50.960;13.880;2023-02-26T05:26:50;-0.50;99.90
26745;DHT22;14342;50.960;13.880;2023-02-26T05:27:52;-0.50;99.90
26745;DHT22;14342;50.960;13.880;2023-02-26T05:28:52;-0.50;99.90
26745;DHT22;14342;50.960;13.880;2023-02-26T05:29:54;-0.50;99.90
26745;DHT22;14342;50.960;13.880;2023-02-26T05:30:55;-0.40;99.90
26745;DHT22;14342;50.960;13.880;2023-02-26T05:31:57;-0.50;99.90
26745;DHT22;14342;50.960;13.880;2023-02-26T05:32:58;-0.50;99.90
26745;DHT22;14342;50.960;13.880;2023-02-26T05:33:59;-0.50;99.90
26745;DHT22;14342;50.960;13.880;2023-02-26T05:35:00;-0.60;99.90
26745;DHT22;14342;50.960;13.880;2023-02-26T05:36:02;-0.50;99.90
26745;DHT22;14342;50.960;13.880;2023-02-26T05:37:04;-0.50;99.90
26745;DHT22;14342;50.960;13.880;2023-02-26T05:38:05;-0.50;99.90
26745;DHT22;14342;50.960;13.880;2023-02-26T05:39:07;-0.60;99.90
26745;DHT22;14342;50.960;13.880;2023-02-26T05:40:09;-0.60;99.90
26745;DHT22;14342;50.960;13.880;2023-02-26T05:41:10;-1.10;99.90
26745;DHT22;14342;50.960;13.880;2023-02-26T05:42:12;-0.70;99.90
26745;DHT22;14342;50.960;13.880;2023-02-26T05:43:12;-1.10;99.90
26745;DHT22;14342;50.960;13.880;2023-02-26T05:44:14;-0.60;99.90
26745;DHT22;14342;50.960;13.880;2023-02-26T05:45:15;-0.60;99.90
26745;DHT22;14342;50.960;13.880;2023-02-26T05:46:17;-0.60;99.90
26745;DHT22;14342;50.960;13.880;2023-02-26T05:47:17;-0.60;99.90
26745;DHT22;14342;50.960;13.880;2023-02-26T05:48:19;-0.60;99.90
26745;DHT22;14342;50.960;13.880;2023-02-26T05:49:19;-0.70;99.90
26745;DHT22;14342;50.960;13.880;2023-02-26T05:50:21;-0.70;99.90
26745;DHT22;14342;50.960;13.880;2023-02-26T05:51:22;-0.70;99.90
26745;DHT22;14342;50.960;13.880;2023-02-26T05:52:25;-0.60;99.90
26745;DHT22;14342;50.960;13.880;2023-02-26T05:53:28;-0.50;99.90
26745;DHT22;14342;50.960;13.880;2023-02-26T05:54:30;-0.60;99.90
26745;DHT22;14342;50.960;13.880;2023-02-26T05:55:31;-0.70;99.90
26745;DHT22;14342;50.960;13.880;2023-02-26T05:56:32;-0.70;99.90
26745;DHT22;14342;50.960;13.880;2023-02-26T05:57:33;-0.70;99.90
26745;DHT22;14342;50.960;13.880;2023-02-26T05:58:35;-0.80;99.90
26745;DHT22;14342;50.960;13.880;2023-02-26T05:59:35;-0.70;99.90
26745;DHT22;14342;50.960;13.880;2023-02-26T06:00:38;-0.80;99.90
26745;DHT22;14342;50.960;13.880;2023-02-26T06:01:38;-0.80;99.90
26745;DHT22;14342;50.960;13.880;2023-02-26T06:02:42;-0.80;99.90
26745;DHT22;14342;50.960;13.880;2023-02-26T06:03:43;-0.80;99.90
26745;DHT22;14342;50.960;13.880;2023-02-26T06:04:44;-0.70;99.90
26745;DHT22;14342;50.960;13.880;2023-02-26T06:05:45;-0.70;99.90
26745;DHT22;14342;50.960;13.880;2023-02-26T06:06:47;-0.70;99.90
26745;DHT22;14342;50.960;13.880;2023-02-26T06:07:49;-0.50;99.90
26745;DHT22;14342;50.960;13.880;2023-02-26T06:08:51;-0.50;99.90
26745;DHT22;14342;50.960;13.880;2023-02-26T06:09:52;-0.60;99.90
26745;DHT22;14342;50.960;13.880;2023-02-26T06:10:53;-0.60;99.90
26745;DHT22;14342;50.960;13.880;2023-02-26T06:11:54;-0.60;99.90
26745;DHT22;14342;50.960;13.880;2023-02-26T06:12:55;-0.60;99.90
26745;DHT22;14342;50.960;13.880;2023-02-26T06:13:56;-0.70;99.90
26745;DHT22;14342;50.960;13.880;2023-02-26T06:14:58;-0.60;99.90
26745;DHT22;14342;50.960;13.880;2023-02-26T06:15:58;-0.60;99.90
26745;DHT22;14342;50.960;13.880;2023-02-26T06:17:00;-0.40;99.90
26745;DHT22;14342;50.960;13.880;2023-02-26T06:18:01;-0.60;99.90
26745;DHT22;14342;50.960;13.880;2023-02-26T06:19:02;-0.60;99.90
26745;DHT22;14342;50.960;13.880;2023-02-26T06:20:03;-0.50;99.90
26745;DHT22;14342;50.960;13.880;2023-02-26T06:21:05;-0.70;99.90
26745;DHT22;14342;50.960;13.880;2023-02-26T06:22:06;-0.70;99.90
26745;DHT22;14342;50.960;13.880;2023-02-26T06:23:09;-0.70;99.90
26745;DHT22;14342;50.960;13.880;2023-02-26T06:24:09;-0.70;99.90
26745;DHT22;14342;50.960;13.880;2023-02-26T06:25:11;-0.60;99.90
26745;DHT22;14342;50.960;13.880;2023-02-26T06:26:12;-0.70;99.90
26745;DHT22;14342;50.960;13.880;2023-02-26T06:27:13;-0.70;99.90
26745;DHT22;14342;50.960;13.880;2023-02-26T06:28:14;-0.70;99.90
26745;DHT22;14342;50.960;13.880;2023-02-26T06:29:15;-0.80;99.90
26745;DHT22;14342;50.960;13.880;2023-02-26T06:30:17;-0.80;99.90
26745;DHT22;14342;50.960;13.880;2023-02-26T06:31:19;-0.70;99.90
26745;DHT22;14342;50.960;13.880;2023-02-26T06:32:20;-0.80;99.90